Time;durP1;ratioP1;P1;durP2;ratioP2;P2;SDS_P1;SDS_P2;PMS_P1;PMS_P2;Temp;Humidity;BMP_temperature;BMP_pressure;BME280_temperature;BME280_humidity;BME280_pressure;Samples;Min_cycle;Max_cycle;Signal;HPM_P1;HPM_P2
2022/07/04 00:04:09;;;;;;;2.40;2.30;;;24.20;99.90;;;;;;12954441;22;20494;-83
2022/07/04 00:09:11;;;;;;;2.63;2.42;;;24.20;99.90;;;;;;12981025;22;20170;-83
2022/07/04 00:14:14;;;;;;;2.70;2.50;;;24.20;99.90;;;;;;12998349;22;20615;-83
2022/07/04 00:19:16;;;;;;;2.42;2.22;;;24.20;99.90;;;;;;12980603;22;20174;-83
2022/07/04 00:24:19;;;;;;;2.78;2.47;;;24.20;99.90;;;;;;12953592;22;20178;-83
2022/07/04 00:29:21;;;;;;;2.88;2.65;;;24.20;99.90;;;;;;12981447;22;20170;-83
2022/07/04 00:34:24;;;;;;;3.85;2.17;;;24.20;99.90;;;;;;12981031;22;20181;-83
2022/07/04 00:39:27;;;;;;;2.40;2.20;;;24.20;99.90;;;;;;12980628;22;20558;-83
2022/07/04 00:44:31;;;;;;;2.72;2.53;;;24.20;99.90;;;;;;12952160;22;20239;-83
2022/07/04 00:49:34;;;;;;;2.65;2.33;;;24.20;99.90;;;;;;12980447;22;20575;-83
2022/07/04 00:54:37;;;;;;;2.42;2.28;;;24.20;99.90;;;;;;12952361;22;20544;-83
2022/07/04 00:59:40;;;;;;;2.45;2.33;;;24.20;99.90;;;;;;12980964;22;20161;-82
2022/07/04 01:04:42;;;;;;;2.75;2.55;;;24.20;99.90;;;;;;12954334;22;20219;-83
2022/07/04 01:09:46;;;;;;;3.47;2.55;;;24.20;99.90;;;;;;12998721;22;20223;-82
2022/07/04 01:14:48;;;;;;;2.60;2.40;;;24.20;99.90;;;;;;12980590;22;20186;-83
2022/07/04 01:19:51;;;;;;;2.95;2.75;;;24.20;99.90;;;;;;12980758;22;20174;-82
2022/07/04 01:24:54;;;;;;;2.85;2.65;;;24.20;99.90;;;;;;12999676;22;20169;-83
2022/07/04 01:29:56;;;;;;;3.95;2.10;;;24.10;99.90;;;;;;12998275;22;20165;-83
2022/07/04 01:34:58;;;;;;;2.55;2.00;;;24.20;99.90;;;;;;12979733;22;20563;-83
2022/07/04 01:40:01;;;;;;;2.53;2.33;;;24.10;99.90;;;;;;12984910;22;20219;-83
2022/07/04 01:45:04;;;;;;;2.65;2.45;;;24.10;99.90;;;;;;12984184;22;20170;-82
2022/07/04 01:50:12;;;;;;;2.40;2.20;;;24.20;99.90;;;;;;12956369;22;20275;-83
2022/07/04 01:55:14;;;;;;;3.08;2.22;;;24.10;99.90;;;;;;12974833;22;20531;-82
2022/07/04 02:05:38;;;;;;;2.58;2.38;;;24.20;99.90;;;;;;13000599;22;20177;-82
2022/07/04 02:10:40;;;;;;;2.97;2.30;;;24.10;99.90;;;;;;12983643;22;20239;-82
2022/07/04 02:15:43;;;;;;;2.70;2.50;;;24.10;99.90;;;;;;12983886;22;20189;-82
2022/07/04 02:20:45;;;;;;;2.70;2.50;;;24.10;99.90;;;;;;12983691;22;20219;-83
2022/07/04 02:25:48;;;;;;;2.40;2.20;;;24.10;99.90;;;;;;12955174;22;20177;-83
2022/07/04 02:30:51;;;;;;;2.45;2.25;;;24.10;99.90;;;;;;12983394;22;20223;-83
2022/07/04 02:35:53;;;;;;;2.47;2.28;;;24.10;99.90;;;;;;12983882;22;20189;-83
2022/07/04 02:40:56;;;;;;;2.03;1.92;;;24.10;99.90;;;;;;12983504;22;20166;-82
2022/07/04 02:45:58;;;;;;;2.35;2.17;;;24.10;99.90;;;;;;12981528;22;20200;-83
2022/07/04 02:51:01;;;;;;;2.20;2.10;;;24.00;99.90;;;;;;12983154;22;20170;-83
2022/07/04 02:56:04;;;;;;;2.42;2.22;;;24.00;99.90;;;;;;13000298;22;20251;-82
2022/07/04 03:01:07;;;;;;;2.25;2.15;;;24.10;99.90;;;;;;12999976;22;20235;-83
2022/07/04 03:06:10;;;;;;;3.83;2.40;;;24.10;99.90;;;;;;13000128;22;20216;-83
2022/07/04 03:11:13;;;;;;;2.40;2.22;;;24.10;99.90;;;;;;12982553;22;20211;-83
2022/07/04 03:16:15;;;;;;;2.58;2.38;;;24.10;99.90;;;;;;12982544;22;20170;-83
2022/07/04 03:21:18;;;;;;;2.03;1.90;;;24.10;99.90;;;;;;12999927;22;20507;-83
2022/07/04 03:26:20;;;;;;;2.58;2.38;;;24.10;99.90;;;;;;12982223;22;20166;-83
2022/07/04 03:31:23;;;;;;;2.60;2.40;;;24.10;99.90;;;;;;12981815;22;20165;-82
2022/07/04 03:36:26;;;;;;;2.90;2.25;;;24.10;99.90;;;;;;12953937;22;20200;-83
2022/07/04 03:41:28;;;;;;;2.58;2.33;;;24.20;99.90;;;;;;12952710;22;20700;-83
2022/07/04 03:46:31;;;;;;;2.38;2.17;;;24.20;99.90;;;;;;12981724;22;20170;-83
2022/07/04 03:51:34;;;;;;;2.58;2.38;;;24.20;99.90;;;;;;12981917;22;20195;-83
2022/07/04 03:56:36;;;;;;;2.42;2.22;;;24.20;99.90;;;;;;12981627;22;20613;-84
2022/07/04 04:01:39;;;;;;;2.88;2.65;;;24.20;99.90;;;;;;12967675;22;20220;-84
2022/07/04 04:06:41;;;;;;;2.58;2.38;;;24.20;99.90;;;;;;12978860;22;20169;-83
2022/07/04 04:11:45;;;;;;;2.38;2.17;;;24.20;99.90;;;;;;12952173;22;20227;-83
2022/07/04 04:16:47;;;;;;;2.55;2.35;;;24.20;99.90;;;;;;12978570;22;20472;-83
2022/07/04 04:21:51;;;;;;;4.80;2.28;;;24.30;99.90;;;;;;12979671;22;20512;-84
2022/07/04 04:26:54;;;;;;;2.40;2.20;;;24.30;99.90;;;;;;12998688;22;20223;-84
2022/07/04 04:31:57;;;;;;;2.78;2.50;;;24.40;99.90;;;;;;12952294;22;20194;-83
2022/07/04 04:37:00;;;;;;;2.30;2.17;;;24.50;99.90;;;;;;12971937;22;20165;-83
2022/07/04 04:42:02;;;;;;;2.63;2.42;;;24.70;99.90;;;;;;12980656;22;20488;-83
2022/07/04 04:47:05;;;;;;;2.50;2.30;;;24.80;99.90;;;;;;12980670;22;20174;-83
2022/07/04 04:52:07;;;;;;;3.00;2.80;;;24.80;99.90;;;;;;12980220;22;20181;-83
2022/07/04 04:57:10;;;;;;;2.55;2.35;;;24.70;99.90;;;;;;12980007;22;20162;-83
2022/07/04 05:02:12;;;;;;;3.88;2.40;;;24.60;99.90;;;;;;12950958;22;20181;-85
2022/07/04 05:07:18;;;;;;;7.80;4.90;;;24.60;99.90;;;;;;12979367;22;20196;-83
2022/07/04 05:12:26;;;;;;;6.70;3.58;;;24.10;99.90;;;;;;12982934;22;20243;-84
2022/07/04 05:17:29;;;;;;;7.82;4.13;;;23.90;99.90;;;;;;12996213;22;20508;-83
2022/07/04 05:22:34;;;;;;;6.32;3.25;;;24.10;99.90;;;;;;12984696;22;20173;-83
2022/07/04 05:27:37;;;;;;;5.55;3.17;;;24.20;99.90;;;;;;13001462;22;20547;-83
2022/07/04 05:32:40;;;;;;;3.75;3.28;;;24.40;99.90;;;;;;12956314;22;20738;-83
2022/07/04 05:37:43;;;;;;;7.18;3.13;;;24.50;99.90;;;;;;12985351;22;20162;-83
2022/07/04 05:42:45;;;;;;;3.38;3.08;;;24.70;99.90;;;;;;12984947;22;20204;-83
2022/07/04 05:47:48;;;;;;;7.43;3.47;;;24.80;99.90;;;;;;12996016;22;20200;-83
2022/07/04 05:52:51;;;;;;;4.13;3.10;;;24.90;99.90;;;;;;12984888;22;20216;-83
2022/07/04 05:57:53;;;;;;;5.10;3.38;;;24.90;99.90;;;;;;12984501;22;20162;-83
2022/07/04 06:02:58;;;;;;;7.80;3.03;;;24.90;99.90;;;;;;12984239;22;20170;-83
2022/07/04 06:08:05;;;;;;;7.60;4.95;;;24.90;99.90;;;;;;13001594;22;20543;-83
2022/07/04 06:13:09;;;;;;;4.72;3.30;;;24.90;99.90;;;;;;12955601;22;20279;-83
2022/07/04 06:18:12;;;;;;;7.38;3.00;;;24.40;99.90;;;;;;12956619;22;20516;-83
2022/07/04 06:23:14;;;;;;;8.05;4.65;;;24.40;99.90;;;;;;13002242;22;20166;-83
2022/07/04 06:28:17;;;;;;;5.70;2.97;;;24.40;99.90;;;;;;12984151;22;20836;-83
2022/07/04 06:39:00;;;;;;;4.03;3.63;;;24.00;99.90;;;;;;13001470;22;20162;-83
2022/07/04 06:44:04;;;;;;;6.13;3.55;;;24.60;99.90;;;;;;12981756;22;20219;-83
2022/07/04 06:49:12;;;;;;;5.40;2.88;;;24.60;99.90;;;;;;12988123;22;20166;-83
2022/07/04 06:54:15;;;;;;;5.22;3.80;;;24.70;99.90;;;;;;12982779;22;20490;-83
2022/07/04 06:59:18;;;;;;;5.60;4.15;;;24.80;99.90;;;;;;12982850;22;20735;-83
2022/07/04 07:04:20;;;;;;;3.95;2.80;;;25.00;99.90;;;;;;12952703;22;20182;-83
2022/07/04 07:09:22;;;;;;;4.20;3.15;;;25.10;99.90;;;;;;12981453;22;20194;-83
2022/07/04 07:14:25;;;;;;;7.10;4.10;;;25.20;99.90;;;;;;12954941;22;20554;-83
2022/07/04 07:19:28;;;;;;;3.38;3.00;;;25.40;99.90;;;;;;12981817;22;20482;-83
2022/07/04 07:24:30;;;;;;;2.55;2.35;;;25.50;99.90;;;;;;12981652;22;20244;-84
2022/07/04 07:29:33;;;;;;;3.92;3.63;;;25.60;99.90;;;;;;12955832;22;20254;-84
2022/07/04 07:34:35;;;;;;;3.50;3.20;;;25.20;99.90;;;;;;12980779;22;20181;-84
2022/07/04 07:39:38;;;;;;;3.38;3.08;;;25.10;99.90;;;;;;12928374;22;20173;-84
2022/07/04 07:44:46;;;;;;;2.70;2.50;;;25.40;99.90;;;;;;12980836;22;20515;-84
2022/07/04 07:49:49;;;;;;;5.65;3.65;;;25.60;99.90;;;;;;12952407;22;20182;-84
2022/07/04 07:54:51;;;;;;;2.80;2.60;;;25.70;99.90;;;;;;12999761;22;20193;-84
2022/07/04 08:00:04;;;;;;;3.00;2.78;;;25.70;99.90;;;;;;12999551;22;20166;-84
2022/07/04 08:05:13;;;;;;;4.75;3.03;;;25.90;99.90;;;;;;13001592;22;20181;-84
2022/07/04 08:10:16;;;;;;;2.80;2.60;;;25.80;99.90;;;;;;12996323;22;20220;-84
2022/07/04 08:15:18;;;;;;;2.85;2.53;;;25.90;99.90;;;;;;12951938;22;20190;-84
2022/07/04 08:20:21;;;;;;;5.30;4.30;;;26.00;99.90;;;;;;12980400;22;20170;-84
2022/07/04 08:25:23;;;;;;;4.43;3.70;;;26.20;99.60;;;;;;12981483;22;20174;-84
2022/07/04 08:30:26;;;;;;;3.13;2.90;;;25.90;99.50;;;;;;12999971;22;20169;-84
2022/07/04 08:35:29;;;;;;;4.70;3.13;;;25.80;99.90;;;;;;12980753;22;20186;-84
2022/07/04 08:40:33;;;;;;;3.40;3.15;;;25.60;99.90;;;;;;12980689;22;20547;-84
2022/07/04 08:45:36;;;;;;;3.22;2.92;;;25.40;99.90;;;;;;12953011;22;20178;-84
2022/07/04 08:50:54;;;;;;;4.90;2.90;;;25.10;99.90;;;;;;12952784;22;20181;-84
2022/07/04 09:01:19;;;;;;;3.53;3.22;;;25.10;99.90;;;;;;12980415;22;20219;-84
2022/07/04 09:06:23;;;;;;;2.58;2.38;;;25.20;99.90;;;;;;12951767;22;20231;-84
2022/07/04 09:11:25;;;;;;;2.80;2.60;;;25.30;99.90;;;;;;12953503;22;20239;-84
2022/07/04 09:16:28;;;;;;;3.47;2.90;;;25.30;99.90;;;;;;12979325;22;20628;-84
2022/07/04 09:21:51;;;;;;;3.50;3.20;;;25.30;99.90;;;;;;12975069;22;20211;-85
2022/07/04 09:26:54;;;;;;;3.13;2.90;;;25.30;99.90;;;;;;12973048;22;20178;-85
2022/07/04 09:31:56;;;;;;;3.03;2.70;;;25.30;99.90;;;;;;12974157;22;20208;-85
2022/07/04 09:36:59;;;;;;;2.95;2.75;;;25.30;99.90;;;;;;12978639;22;20571;-84
2022/07/04 09:42:07;;;;;;;3.00;2.80;;;25.40;99.90;;;;;;12995046;22;20166;-85
2022/07/04 09:47:27;;;;;;;3.83;2.60;;;25.40;99.90;;;;;;12978600;22;20567;-85
2022/07/04 09:52:31;;;;;;;5.35;3.20;;;25.60;99.90;;;;;;12996558;22;20170;-85
2022/07/04 09:57:33;;;;;;;3.50;3.20;;;25.70;99.90;;;;;;12981536;22;20693;-85
2022/07/04 10:02:37;;;;;;;3.67;2.72;;;25.40;99.90;;;;;;12980808;22;20178;-85
2022/07/04 10:07:43;;;;;;;3.30;3.10;;;25.40;99.90;;;;;;12981277;22;20165;-85
2022/07/04 10:12:49;;;;;;;4.85;3.60;;;25.60;99.90;;;;;;12982398;22;20194;-85
2022/07/04 10:17:51;;;;;;;4.07;2.80;;;25.60;99.90;;;;;;12995284;22;20551;-85
2022/07/04 10:22:53;;;;;;;3.83;3.13;;;25.40;99.90;;;;;;12954765;22;20647;-85
2022/07/04 10:27:56;;;;;;;4.05;3.75;;;25.60;99.90;;;;;;12929012;22;20602;-85
2022/07/04 10:33:07;;;;;;;2.83;2.60;;;25.70;99.90;;;;;;12981558;22;20170;-85
2022/07/04 10:38:11;;;;;;;3.35;3.08;;;25.40;99.90;;;;;;12979095;22;20211;-85
2022/07/04 10:43:35;;;;;;;3.47;3.08;;;25.50;99.90;;;;;;12978312;22;20192;-85
2022/07/04 10:48:54;;;;;;;2.80;2.60;;;25.30;99.90;;;;;;12953761;22;20663;-85
2022/07/04 10:54:08;;;;;;;3.35;3.10;;;25.50;99.90;;;;;;12999584;22;20239;-85
2022/07/04 10:59:15;;;;;;;3.00;2.78;;;25.70;99.90;;;;;;12973262;22;20842;-85
2022/07/04 11:04:46;;;;;;;3.20;2.90;;;25.70;99.90;;;;;;12987729;22;20200;-85
2022/07/04 11:10:11;;;;;;;3.85;2.92;;;25.70;99.90;;;;;;12950934;22;20205;-85
2022/07/04 11:15:14;;;;;;;2.70;2.50;;;25.80;99.90;;;;;;12951140;22;20251;-85
2022/07/04 11:20:16;;;;;;;2.80;2.60;;;25.80;99.90;;;;;;12979276;22;20196;-84
2022/07/04 11:25:19;;;;;;;3.15;2.95;;;25.70;99.90;;;;;;12973216;22;20169;-84
2022/07/04 11:30:21;;;;;;;5.57;3.83;;;25.80;99.90;;;;;;12954236;22;20173;-88
2022/07/04 11:35:24;;;;;;;4.35;3.95;;;25.50;99.10;;;;;;12954586;22;20190;-94
2022/07/04 11:46:12;;;;;;;4.95;3.72;;;25.90;99.80;;;;;;12985856;22;20169;-93
2022/07/04 11:51:18;;;;;;;6.07;3.63;;;25.90;98.50;;;;;;12980676;22;20182;-94
2022/07/04 11:56:20;;;;;;;4.30;3.40;;;26.00;97.50;;;;;;12929128;22;20243;-95
2022/07/04 12:01:28;;;;;;;4.72;3.38;;;26.10;99.80;;;;;;12930585;22;20255;-95
2022/07/04 12:06:30;;;;;;;6.65;3.60;;;26.10;98.60;;;;;;12929666;22;20204;-96
2022/07/04 12:11:59;;;;;;;3.80;3.50;;;25.90;98.80;;;;;;12980681;22;20296;-95
2022/07/04 12:17:15;;;;;;;4.93;3.47;;;26.00;98.50;;;;;;12930546;22;20197;-95
2022/07/04 12:22:29;;;;;;;3.78;3.47;;;25.90;98.10;;;;;;12999719;22;20170;-95
2022/07/04 12:27:33;;;;;;;8.45;4.32;;;26.20;98.10;;;;;;12929632;22;20181;-94
2022/07/04 12:32:50;;;;;;;5.13;3.45;;;26.40;95.30;;;;;;12930454;22;20298;-96
2022/07/04 12:38:10;;;;;;;3.72;3.10;;;26.30;97.50;;;;;;12980948;22;20205;-95
2022/07/04 12:43:13;;;;;;;4.75;3.80;;;26.60;97.50;;;;;;12957399;22;20166;-95
2022/07/04 12:48:22;;;;;;;3.63;3.28;;;26.30;96.80;;;;;;12929628;22;20185;-95
2022/07/04 12:53:24;;;;;;;3.92;3.58;;;26.40;95.80;;;;;;12930409;22;20177;-95
2022/07/04 12:58:27;;;;;;;3.72;3.40;;;26.60;96.70;;;;;;12929376;22;20697;-93
2022/07/04 13:03:29;;;;;;;5.03;3.58;;;26.80;96.50;;;;;;12954212;22;20174;-95
2022/07/04 13:08:32;;;;;;;3.83;3.50;;;26.90;95.90;;;;;;12953718;22;20174;-95
2022/07/04 13:13:34;;;;;;;5.72;4.07;;;26.80;96.10;;;;;;12980355;22;20227;-95
2022/07/04 13:18:37;;;;;;;4.63;4.28;;;26.50;95.40;;;;;;12953376;22;20499;-84
2022/07/04 13:23:39;;;;;;;5.15;4.65;;;26.60;96.50;;;;;;12945552;22;20214;-83
2022/07/04 13:28:42;;;;;;;4.55;3.70;;;26.90;95.40;;;;;;12976024;22;20162;-82
2022/07/04 13:33:44;;;;;;;5.93;5.43;;;27.00;96.20;;;;;;12953603;22;20174;-82
2022/07/04 13:38:47;;;;;;;6.63;5.95;;;26.90;94.60;;;;;;12979538;22;20212;-82
2022/07/04 13:44:06;;;;;;;6.30;5.80;;;26.50;95.70;;;;;;12998529;22;20165;-82
2022/07/04 13:49:09;;;;;;;6.70;5.72;;;26.50;94.80;;;;;;12980716;22;20746;-82
2022/07/04 13:54:15;;;;;;;6.13;5.00;;;27.30;94.30;;;;;;12971473;22;20182;-82
2022/07/04 13:59:17;;;;;;;6.38;3.88;;;27.20;95.00;;;;;;12950298;22;20551;-81
2022/07/04 14:04:20;;;;;;;4.18;3.78;;;27.80;96.00;;;;;;12979501;22;20263;-83
2022/07/04 14:09:22;;;;;;;5.20;4.30;;;28.10;95.40;;;;;;12978862;22;20626;-82
2022/07/04 14:14:25;;;;;;;4.70;4.10;;;27.60;93.50;;;;;;12979306;22;20563;-81
2022/07/04 14:19:28;;;;;;;4.72;4.20;;;27.50;94.20;;;;;;12976023;22;20177;-81
2022/07/04 14:24:30;;;;;;;4.63;4.18;;;27.60;93.20;;;;;;12975515;22;20166;-82
2022/07/04 14:29:34;;;;;;;5.15;4.70;;;27.50;96.40;;;;;;12948955;22;20697;-93
2022/07/04 14:34:41;;;;;;;6.88;4.68;;;27.80;93.70;;;;;;12958037;22;20185;-94
2022/07/04 14:39:44;;;;;;;7.68;4.78;;;27.40;93.00;;;;;;12937485;22;20178;-95
2022/07/04 14:44:48;;;;;;;5.07;4.53;;;27.10;93.40;;;;;;12959915;22;20173;-94
2022/07/04 14:49:51;;;;;;;5.75;5.10;;;27.00;94.00;;;;;;12959127;22;20182;-95
2022/07/04 14:54:54;;;;;;;5.50;4.85;;;26.90;94.20;;;;;;12958025;22;20567;-93
2022/07/04 14:59:56;;;;;;;5.55;4.78;;;26.80;94.30;;;;;;12932476;22;20517;-93
2022/07/04 15:04:59;;;;;;;10.05;5.10;;;26.80;94.50;;;;;;12934326;22;20216;-94
2022/07/04 15:10:02;;;;;;;6.30;5.70;;;26.70;94.90;;;;;;12932422;22;20206;-94
2022/07/04 15:15:05;;;;;;;4.78;4.38;;;26.60;94.90;;;;;;12935317;22;20498;-94
2022/07/04 15:25:29;;;;;;;5.22;4.82;;;26.50;95.20;;;;;;12981976;22;20181;-93
2022/07/04 15:30:32;;;;;;;7.55;4.78;;;26.60;94.90;;;;;;12981906;22;20174;-92
2022/07/04 15:35:35;;;;;;;5.47;4.97;;;26.50;95.20;;;;;;12956050;22;20243;-93
2022/07/04 15:40:41;;;;;;;4.90;4.50;;;26.50;95.30;;;;;;12931074;22;20170;-94
2022/07/04 15:45:43;;;;;;;4.10;3.65;;;26.60;94.50;;;;;;12930105;22;20536;-83
2022/07/04 15:50:46;;;;;;;4.72;3.33;;;26.50;94.40;;;;;;12980522;22;20555;-83
2022/07/04 15:55:49;;;;;;;8.15;3.78;;;26.60;94.40;;;;;;12997235;22;20185;-83
2022/07/04 16:00:51;;;;;;;3.30;3.05;;;26.70;93.30;;;;;;12972251;22;20219;-83
2022/07/04 16:05:54;;;;;;;3.40;3.10;;;26.50;93.20;;;;;;12929145;22;20181;-83
2022/07/04 16:10:57;;;;;;;3.60;3.30;;;26.80;93.10;;;;;;12949957;22;20205;-84
2022/07/04 16:15:59;;;;;;;8.95;2.95;;;27.00;92.30;;;;;;12974777;22;20267;-83
2022/07/04 16:21:02;;;;;;;7.05;4.53;;;27.30;90.60;;;;;;12942554;22;20228;-83
2022/07/04 16:26:04;;;;;;;8.90;5.45;;;27.40;95.50;;;;;;12951008;22;20231;-83
2022/07/04 16:31:07;;;;;;;6.93;3.80;;;28.40;94.40;;;;;;12952896;22;20170;-83
2022/07/04 16:36:15;;;;;;;4.28;3.88;;;28.50;93.80;;;;;;12979535;22;20190;-83
2022/07/04 16:41:17;;;;;;;5.93;4.40;;;28.70;93.40;;;;;;12952875;22;20166;-83
2022/07/04 16:46:20;;;;;;;4.88;3.55;;;29.00;92.80;;;;;;12974500;22;20169;-83
2022/07/04 16:51:22;;;;;;;4.20;3.80;;;29.20;90.00;;;;;;12973352;22;20558;-83
2022/07/04 16:56:25;;;;;;;4.07;3.67;;;29.00;92.80;;;;;;12973259;22;20197;-83
2022/07/04 17:01:27;;;;;;;4.47;4.07;;;28.90;92.40;;;;;;12948899;22;20173;-83
2022/07/04 17:06:30;;;;;;;3.85;3.47;;;29.00;92.10;;;;;;12992503;22;20196;-83
2022/07/04 17:11:33;;;;;;;3.72;3.30;;;29.00;92.20;;;;;;12975449;22;20191;-83
2022/07/04 17:16:36;;;;;;;5.20;2.80;;;28.70;92.80;;;;;;12972063;22;20198;-83
2022/07/04 17:21:39;;;;;;;5.30;4.00;;;28.80;90.60;;;;;;12992947;22;20166;-83
2022/07/04 17:26:42;;;;;;;3.83;3.53;;;28.80;92.70;;;;;;12947759;22;20177;-83
2022/07/04 17:32:04;;;;;;;4.00;3.60;;;28.90;92.40;;;;;;12992345;22;20173;-83
2022/07/04 17:37:09;;;;;;;3.45;3.15;;;28.80;92.80;;;;;;12976385;22;20396;-83
2022/07/04 17:42:15;;;;;;;3.80;3.28;;;28.70;90.70;;;;;;12992037;22;20231;-83
2022/07/04 17:47:18;;;;;;;3.72;2.65;;;28.50;90.40;;;;;;12974817;22;20208;-83
2022/07/04 17:52:20;;;;;;;3.45;2.95;;;28.50;91.50;;;;;;12974919;22;20169;-83
2022/07/04 17:57:23;;;;;;;4.43;2.53;;;28.60;92.80;;;;;;12977466;22;20186;-86
2022/07/04 18:02:25;;;;;;;7.75;2.33;;;28.30;91.90;;;;;;12978625;22;20239;-87
2022/07/04 18:07:28;;;;;;;4.43;2.17;;;27.10;88.10;;;;;;12952719;22;20608;-84
2022/07/04 18:12:31;;;;;;;2.78;1.92;;;27.30;88.50;;;;;;12951974;22;20205;-84
2022/07/04 18:17:33;;;;;;;2.35;2.10;;;27.40;89.00;;;;;;12952364;22;20189;-84
2022/07/04 18:22:36;;;;;;;5.78;2.45;;;27.60;89.00;;;;;;12983464;22;20595;-83
2022/07/04 18:27:39;;;;;;;2.33;2.13;;;27.60;88.90;;;;;;12983202;22;20508;-84
2022/07/04 18:32:43;;;;;;;3.33;2.08;;;27.40;90.10;;;;;;12983288;22;20170;-84
2022/07/04 18:37:45;;;;;;;2.20;2.10;;;27.60;90.10;;;;;;12983011;22;20642;-84
2022/07/04 18:48:09;;;;;;;3.65;2.13;;;27.70;90.40;;;;;;12954663;22;20235;-85
2022/07/04 18:53:11;;;;;;;2.50;2.30;;;27.60;90.60;;;;;;12982874;22;20222;-85
2022/07/04 18:58:15;;;;;;;2.10;2.00;;;27.60;90.80;;;;;;12982857;22;20251;-85
2022/07/04 19:03:18;;;;;;;2.47;2.38;;;27.50;91.00;;;;;;12981043;22;20496;-84
2022/07/04 19:08:21;;;;;;;2.00;1.90;;;27.40;91.30;;;;;;12956072;22;20169;-84
2022/07/04 19:13:23;;;;;;;2.53;2.33;;;27.40;91.40;;;;;;12915870;23;20697;-85
2022/07/04 19:18:26;;;;;;;2.88;1.88;;;27.40;91.60;;;;;;12916317;23;20248;-87
2022/07/04 19:23:28;;;;;;;4.05;2.17;;;27.20;91.50;;;;;;12918320;23;20232;-84
2022/07/04 19:28:31;;;;;;;3.17;2.17;;;26.70;90.70;;;;;;12936837;23;20170;-83
2022/07/04 19:33:33;;;;;;;2.95;2.25;;;26.80;90.80;;;;;;12931988;23;20269;-83
2022/07/04 19:38:36;;;;;;;3.30;2.45;;;26.70;91.00;;;;;;12917026;23;20521;-83
2022/07/04 19:43:38;;;;;;;3.58;2.83;;;26.90;90.90;;;;;;12918084;23;20171;-83
2022/07/04 19:48:41;;;;;;;2.95;2.38;;;26.90;91.10;;;;;;12914299;23;20183;-84
2022/07/04 19:53:43;;;;;;;3.63;1.95;;;26.90;91.20;;;;;;12916745;23;20170;-83
2022/07/04 19:58:46;;;;;;;3.35;2.10;;;26.90;91.40;;;;;;12913722;23;20198;-84
2022/07/04 20:03:48;;;;;;;6.90;2.03;;;26.90;91.40;;;;;;12917121;23;20252;-83
2022/07/04 20:08:51;;;;;;;2.72;2.53;;;26.90;91.50;;;;;;12917614;23;20166;-83
2022/07/04 20:13:53;;;;;;;2.25;2.05;;;26.90;91.70;;;;;;12977983;22;20193;-83
2022/07/04 20:18:56;;;;;;;2.97;2.38;;;26.80;91.80;;;;;;12977381;22;20236;-83
2022/07/04 20:23:59;;;;;;;2.20;2.00;;;26.80;91.90;;;;;;12925562;22;20178;-83
2022/07/04 20:29:03;;;;;;;2.13;1.92;;;26.80;92.00;;;;;;12978986;22;20169;-83
2022/07/04 20:34:05;;;;;;;2.35;1.98;;;26.70;92.10;;;;;;12953499;22;20223;-83
2022/07/04 20:39:08;;;;;;;3.65;2.28;;;26.70;92.30;;;;;;12980189;22;20216;-83
2022/07/04 20:44:10;;;;;;;2.28;2.08;;;26.70;92.40;;;;;;12979371;22;20219;-83
2022/07/04 20:49:13;;;;;;;4.60;2.28;;;26.60;92.50;;;;;;12979826;22;20227;-83
2022/07/04 20:54:15;;;;;;;2.35;1.88;;;26.60;92.70;;;;;;12997352;22;20169;-83
2022/07/04 20:59:18;;;;;;;2.10;1.85;;;26.60;92.80;;;;;;12979637;22;20530;-84
2022/07/04 21:04:20;;;;;;;2.22;2.03;;;26.50;92.90;;;;;;12926802;22;20223;-85
2022/07/04 21:09:23;;;;;;;2.38;2.17;;;26.50;93.00;;;;;;12980250;22;20295;-84
2022/07/04 21:14:25;;;;;;;1.83;1.70;;;26.50;93.10;;;;;;12977068;22;20223;-83
2022/07/04 21:19:30;;;;;;;2.10;1.80;;;26.40;93.20;;;;;;12979875;22;20189;-83
2022/07/04 21:24:43;;;;;;;2.00;1.90;;;26.40;93.30;;;;;;12924693;22;20173;-83
2022/07/04 21:29:46;;;;;;;2.30;2.10;;;26.40;93.40;;;;;;12977552;22;20200;-83
2022/07/04 21:34:49;;;;;;;2.58;2.20;;;26.30;93.60;;;;;;12978401;22;20174;-84
2022/07/04 21:40:12;;;;;;;1.92;1.80;;;26.30;93.60;;;;;;12998369;22;20239;-83
2022/07/04 21:45:14;;;;;;;2.10;1.90;;;26.30;93.70;;;;;;12980895;22;20162;-85
2022/07/04 21:50:17;;;;;;;2.17;1.98;;;26.30;93.90;;;;;;12981281;22;20231;-85
2022/07/04 21:55:19;;;;;;;2.13;1.98;;;26.20;94.00;;;;;;12983342;22;20204;-85
2022/07/04 22:00:22;;;;;;;2.42;2.22;;;26.30;94.00;;;;;;12956790;22;20582;-85
2022/07/04 22:05:24;;;;;;;3.00;2.38;;;26.20;94.10;;;;;;12983556;22;20166;-85
2022/07/04 22:10:27;;;;;;;2.70;1.80;;;26.20;94.20;;;;;;12982231;22;20190;-85
2022/07/04 22:15:30;;;;;;;1.60;1.50;;;26.20;94.20;;;;;;12979173;22;20173;-85
2022/07/04 22:20:32;;;;;;;2.03;1.75;;;26.20;94.20;;;;;;12978967;22;20185;-85
2022/07/04 22:25:34;;;;;;;1.70;1.60;;;26.10;94.30;;;;;;12951431;22;20625;-85
2022/07/04 22:30:37;;;;;;;2.00;1.90;;;26.10;94.30;;;;;;12979082;22;20162;-85
2022/07/04 22:35:40;;;;;;;2.05;1.90;;;26.10;94.40;;;;;;12952249;22;20231;-85
2022/07/04 22:40:42;;;;;;;1.67;1.58;;;26.10;94.30;;;;;;12952332;22;20169;-86
2022/07/04 22:45:45;;;;;;;1.90;1.80;;;26.00;94.40;;;;;;12980341;22;20165;-86
2022/07/04 22:56:08;;;;;;;1.55;1.45;;;26.00;94.50;;;;;;12999072;22;20204;-85
2022/07/04 23:01:10;;;;;;;2.05;1.88;;;26.00;94.60;;;;;;12998432;22;20223;-86
2022/07/04 23:06:13;;;;;;;2.13;1.90;;;25.90;94.70;;;;;;12980074;22;20169;-86
2022/07/04 23:11:15;;;;;;;2.00;1.90;;;25.90;94.60;;;;;;12924988;22;1310748;-86
2022/07/04 23:16:18;;;;;;;1.90;1.80;;;25.90;94.70;;;;;;12981631;22;20224;-86
2022/07/04 23:21:21;;;;;;;2.20;2.00;;;25.90;94.80;;;;;;12983159;22;20221;-85
2022/07/04 23:26:23;;;;;;;1.58;1.48;;;25.80;94.90;;;;;;12955378;22;20174;-86
2022/07/04 23:31:26;;;;;;;1.80;1.70;;;25.80;94.90;;;;;;12983216;22;20166;-86
2022/07/04 23:36:28;;;;;;;1.75;1.65;;;25.70;95.00;;;;;;12983011;22;20178;-86
2022/07/04 23:41:31;;;;;;;1.73;1.63;;;25.70;95.00;;;;;;12930533;22;20199;-86
2022/07/04 23:46:34;;;;;;;1.70;1.60;;;25.70;95.10;;;;;;12982748;22;20174;-86
2022/07/04 23:51:36;;;;;;;1.90;1.80;;;25.70;95.20;;;;;;12983691;22;20170;-85
2022/07/04 23:56:39;;;;;;;1.70;1.60;;;25.70;95.20;;;;;;13001479;22;20186;-86
